Time;durP1;ratioP1;P1;durP2;ratioP2;P2;SDS_P1;SDS_P2;PMS_P1;PMS_P2;Temp;Humidity;BMP_temperature;BMP_pressure;BME280_temperature;BME280_humidity;BME280_pressure;Samples;Min_cycle;Max_cycle;Signal;HPM_P1;HPM_P2
2022/03/06 00:01:27;;;;;;;4.25;1.73;;;20.00;51.20;;;;;;4532123;31;20224;-64
2022/03/06 00:03:53;;;;;;;5.43;2.00;;;19.90;51.20;;;;;;4545442;31;20135;-64
2022/03/06 00:06:19;;;;;;;4.43;1.75;;;19.90;51.30;;;;;;4546454;31;20139;-64
2022/03/06 00:08:46;;;;;;;4.00;1.80;;;19.90;51.30;;;;;;4545613;31;20111;-64
2022/03/06 00:11:13;;;;;;;5.28;1.52;;;19.80;51.30;;;;;;4531800;31;20135;-64
2022/03/06 00:13:38;;;;;;;5.57;2.00;;;19.80;51.30;;;;;;4545785;31;20759;-64
2022/03/06 00:16:05;;;;;;;4.45;1.80;;;19.80;51.30;;;;;;4545767;31;20269;-64
2022/03/06 00:18:31;;;;;;;3.72;1.60;;;19.80;51.30;;;;;;4546333;31;20183;-64
2022/03/06 00:20:59;;;;;;;5.47;1.83;;;19.70;51.30;;;;;;4545187;31;20265;-64
2022/03/06 00:23:25;;;;;;;6.68;1.85;;;19.70;51.30;;;;;;4545878;31;20127;-64
2022/03/06 00:25:51;;;;;;;4.70;1.58;;;19.70;51.30;;;;;;4544763;31;20133;-64
2022/03/06 00:28:17;;;;;;;3.22;1.52;;;19.70;51.40;;;;;;4545004;31;20120;-64
2022/03/06 00:30:43;;;;;;;4.65;1.42;;;19.60;51.40;;;;;;4544949;31;20118;-64
2022/03/06 00:33:09;;;;;;;2.88;1.40;;;19.60;51.40;;;;;;4529843;31;20111;-64
2022/03/06 00:35:35;;;;;;;6.05;1.55;;;19.60;51.40;;;;;;4544304;31;20298;-64
2022/03/06 00:38:00;;;;;;;5.63;1.50;;;19.60;51.50;;;;;;4543332;31;20157;-64
2022/03/06 00:40:27;;;;;;;5.20;1.58;;;19.60;51.40;;;;;;4544423;31;20281;-64
2022/03/06 00:42:53;;;;;;;4.15;1.67;;;19.50;51.40;;;;;;4543611;31;20126;-64
2022/03/06 00:45:19;;;;;;;3.55;1.30;;;19.50;51.50;;;;;;4544306;31;20162;-64
2022/03/06 00:47:45;;;;;;;4.30;1.40;;;19.50;51.50;;;;;;4543815;31;20135;-64
2022/03/06 00:50:11;;;;;;;3.58;1.50;;;19.50;51.50;;;;;;4543829;31;20154;-64
2022/03/06 00:52:39;;;;;;;3.38;1.38;;;19.50;51.50;;;;;;4529889;31;20139;-64
2022/03/06 00:55:06;;;;;;;3.63;1.40;;;19.50;51.50;;;;;;4544895;31;20127;-64
2022/03/06 00:57:32;;;;;;;2.72;1.23;;;19.40;51.50;;;;;;4546065;31;20138;-64
2022/03/06 00:59:58;;;;;;;2.88;1.30;;;19.40;51.60;;;;;;4544649;31;20128;-64
2022/03/06 01:02:27;;;;;;;3.80;1.52;;;19.40;51.60;;;;;;4531432;31;20273;-64
2022/03/06 01:04:53;;;;;;;3.40;1.17;;;19.40;51.60;;;;;;4545234;31;20146;-64
2022/03/06 01:07:19;;;;;;;5.10;1.58;;;19.40;51.60;;;;;;4545173;31;20132;-64
2022/03/06 01:09:44;;;;;;;5.00;1.60;;;19.30;51.50;;;;;;4545682;31;20220;-64
2022/03/06 01:12:11;;;;;;;1.90;1.10;;;19.30;51.60;;;;;;4545004;31;20127;-64
2022/03/06 01:14:37;;;;;;;3.28;1.33;;;19.30;51.60;;;;;;4545687;31;20261;-64
2022/03/06 01:17:04;;;;;;;3.75;1.15;;;19.30;51.60;;;;;;4544653;31;20142;-64
2022/03/06 01:19:30;;;;;;;2.58;1.27;;;19.30;51.60;;;;;;4545491;31;20175;-64
2022/03/06 01:21:56;;;;;;;5.53;1.23;;;19.30;52.60;;;;;;4545222;31;20688;-64
2022/03/06 01:24:22;;;;;;;2.65;1.38;;;19.20;51.60;;;;;;4545278;31;20273;-64
2022/03/06 01:26:48;;;;;;;2.70;1.30;;;19.20;51.60;;;;;;4545438;31;20119;-64
2022/03/06 01:29:13;;;;;;;3.17;1.20;;;19.20;51.60;;;;;;4544817;31;20134;-64
2022/03/06 01:31:39;;;;;;;2.92;1.20;;;19.20;51.70;;;;;;4545901;31;20138;-64
2022/03/06 01:34:06;;;;;;;4.10;1.08;;;19.20;51.70;;;;;;4544623;31;20138;-64
2022/03/06 01:36:32;;;;;;;2.63;1.25;;;19.20;51.70;;;;;;4545481;31;20189;-64
2022/03/06 01:38:58;;;;;;;3.15;1.40;;;19.20;51.70;;;;;;4544817;31;20266;-64
2022/03/06 01:41:25;;;;;;;3.75;1.27;;;19.20;51.70;;;;;;4545148;31;20598;-64
2022/03/06 01:43:51;;;;;;;3.47;1.25;;;19.10;51.60;;;;;;4545095;31;20127;-64
2022/03/06 01:46:18;;;;;;;2.78;1.00;;;19.10;51.60;;;;;;4544724;31;20158;-64
2022/03/06 01:48:44;;;;;;;2.60;1.10;;;19.10;51.60;;;;;;4545747;31;20178;-64
2022/03/06 01:51:10;;;;;;;1.90;1.02;;;19.10;51.60;;;;;;4544402;31;20140;-64
2022/03/06 01:53:36;;;;;;;2.20;1.40;;;19.10;51.70;;;;;;4545184;31;20257;-64
2022/03/06 01:56:02;;;;;;;2.03;1.02;;;19.10;51.70;;;;;;4544762;31;20207;-64
2022/03/06 01:58:29;;;;;;;2.33;1.00;;;19.00;51.60;;;;;;4545134;31;20132;-64
2022/03/06 02:00:54;;;;;;;2.22;1.13;;;19.00;51.60;;;;;;4545358;31;20127;-64
2022/03/06 02:03:20;;;;;;;2.53;1.13;;;19.00;51.70;;;;;;4546185;31;20142;-64
2022/03/06 02:05:49;;;;;;;3.08;1.27;;;19.00;51.70;;;;;;4548554;31;20188;-64
2022/03/06 02:08:16;;;;;;;2.38;1.25;;;19.00;51.70;;;;;;4547386;31;20282;-64
2022/03/06 02:10:42;;;;;;;4.07;1.20;;;19.00;51.70;;;;;;4548434;31;20286;-64
2022/03/06 02:13:08;;;;;;;1.85;1.13;;;19.00;51.70;;;;;;4547516;31;20100;-64
2022/03/06 02:15:33;;;;;;;2.72;1.33;;;19.00;51.70;;;;;;4548005;31;20236;-65
2022/03/06 02:18:00;;;;;;;2.55;1.15;;;19.00;51.70;;;;;;4547965;31;20140;-64
2022/03/06 02:20:26;;;;;;;2.33;1.05;;;19.00;51.70;;;;;;4547524;31;20138;-64
2022/03/06 02:22:57;;;;;;;3.90;1.08;;;18.90;51.70;;;;;;4548222;31;20442;-64
2022/03/06 02:25:25;;;;;;;2.28;1.17;;;18.90;51.70;;;;;;4547266;31;20135;-64
2022/03/06 02:27:53;;;;;;;3.88;1.30;;;18.90;51.70;;;;;;4548147;31;20209;-64
2022/03/06 02:30:21;;;;;;;2.63;1.08;;;18.90;51.70;;;;;;4547453;31;20274;-64
2022/03/06 02:32:49;;;;;;;1.35;0.90;;;18.90;51.70;;;;;;4547879;31;20235;-64
2022/03/06 02:35:17;;;;;;;2.22;1.17;;;18.90;51.70;;;;;;4547804;31;20138;-64
2022/03/06 02:37:43;;;;;;;1.50;0.95;;;18.80;51.60;;;;;;4547166;31;20281;-64
2022/03/06 02:40:11;;;;;;;1.50;0.75;;;18.90;51.70;;;;;;4547956;31;20508;-64
2022/03/06 02:42:41;;;;;;;2.05;0.93;;;18.80;51.60;;;;;;4546767;31;20178;-64
2022/03/06 02:45:25;;;;;;;2.28;0.90;;;18.80;51.60;;;;;;4547531;31;20124;-64
2022/03/06 02:47:53;;;;;;;2.40;1.15;;;18.80;51.70;;;;;;4547582;31;20139;-64
2022/03/06 02:50:28;;;;;;;2.38;1.00;;;18.80;51.70;;;;;;4547230;31;20809;-64
2022/03/06 02:52:55;;;;;;;2.92;1.00;;;18.80;51.70;;;;;;4547779;31;20132;-64
2022/03/06 02:55:21;;;;;;;3.22;0.98;;;18.80;51.70;;;;;;4546754;31;20180;-64
2022/03/06 02:57:47;;;;;;;3.22;1.20;;;18.70;51.70;;;;;;4546825;31;20196;-63
2022/03/06 03:00:17;;;;;;;1.88;0.90;;;18.80;51.80;;;;;;4546933;31;20119;-64
2022/03/06 03:02:44;;;;;;;2.90;1.08;;;18.70;51.70;;;;;;4547184;31;20142;-64
2022/03/06 03:05:11;;;;;;;3.33;1.00;;;18.70;51.70;;;;;;4547380;31;20616;-64
2022/03/06 03:07:41;;;;;;;1.88;0.93;;;18.70;51.70;;;;;;4546913;31;20266;-66
2022/03/06 03:10:13;;;;;;;2.03;1.20;;;18.70;51.70;;;;;;4532985;31;20128;-63
2022/03/06 03:12:39;;;;;;;2.30;1.15;;;18.70;51.70;;;;;;4546429;31;20409;-64
2022/03/06 03:15:07;;;;;;;3.13;1.02;;;18.70;52.70;;;;;;4546535;31;20123;-64
2022/03/06 03:17:33;;;;;;;3.00;1.08;;;18.70;51.70;;;;;;4546546;31;20159;-64
2022/03/06 03:19:58;;;;;;;1.88;0.93;;;18.60;51.60;;;;;;4546787;31;20127;-64
2022/03/06 03:22:24;;;;;;;2.05;0.98;;;18.60;51.60;;;;;;4547116;31;20564;-64
2022/03/06 03:24:50;;;;;;;3.72;1.02;;;18.60;51.60;;;;;;4546442;31;20132;-64
2022/03/06 03:27:16;;;;;;;2.05;0.80;;;18.60;51.60;;;;;;4547459;31;20234;-64
2022/03/06 03:29:42;;;;;;;1.77;0.90;;;18.60;51.70;;;;;;4546058;31;20138;-64
2022/03/06 03:32:09;;;;;;;1.60;0.85;;;18.60;51.60;;;;;;4547062;31;20139;-64
2022/03/06 03:34:35;;;;;;;1.85;1.27;;;18.60;51.60;;;;;;4546605;31;20236;-64
2022/03/06 03:37:01;;;;;;;1.83;1.00;;;18.60;51.70;;;;;;4546761;31;20135;-64
2022/03/06 03:39:27;;;;;;;2.53;1.05;;;18.60;51.70;;;;;;4546800;31;20144;-64
2022/03/06 03:41:53;;;;;;;2.58;1.20;;;18.60;51.60;;;;;;4546128;31;20136;-64
2022/03/06 03:44:20;;;;;;;2.00;0.85;;;18.60;51.70;;;;;;4546922;31;20591;-64
2022/03/06 03:46:46;;;;;;;3.30;1.23;;;18.60;51.80;;;;;;4546124;31;20131;-64
2022/03/06 03:49:14;;;;;;;2.50;0.70;;;18.50;51.60;;;;;;4546883;31;20771;-64
2022/03/06 03:51:41;;;;;;;1.52;0.85;;;18.50;51.60;;;;;;4546081;31;20560;-64
2022/03/06 03:54:08;;;;;;;1.88;0.80;;;18.50;51.60;;;;;;4546646;31;20136;-65
2022/03/06 03:56:34;;;;;;;3.67;0.90;;;18.50;51.60;;;;;;4546521;31;20139;-64
2022/03/06 03:58:59;;;;;;;1.77;0.70;;;18.50;51.70;;;;;;4546018;31;20147;-64
2022/03/06 04:01:25;;;;;;;1.65;0.80;;;18.50;51.70;;;;;;4546911;31;20124;-64
2022/03/06 04:03:51;;;;;;;2.13;0.90;;;18.40;51.60;;;;;;4545565;31;20603;-64
2022/03/06 04:06:17;;;;;;;1.65;0.70;;;18.40;51.60;;;;;;4546614;31;20143;-64
2022/03/06 04:08:43;;;;;;;1.05;0.82;;;18.40;51.60;;;;;;4545838;31;20189;-64
2022/03/06 04:11:10;;;;;;;2.58;1.10;;;18.50;51.70;;;;;;4546182;31;20127;-64
2022/03/06 04:13:35;;;;;;;1.67;1.05;;;18.50;51.70;;;;;;4545973;31;20146;-64
2022/03/06 04:16:02;;;;;;;0.93;0.50;;;18.40;51.60;;;;;;4545878;31;20147;-64
2022/03/06 04:18:28;;;;;;;1.05;0.50;;;18.40;51.60;;;;;;4546470;31;20123;-64
2022/03/06 04:20:54;;;;;;;1.27;0.80;;;18.40;51.60;;;;;;4545257;31;20119;-64
2022/03/06 04:23:20;;;;;;;0.73;0.60;;;18.40;51.60;;;;;;4546389;31;20125;-64
2022/03/06 04:25:46;;;;;;;1.88;0.90;;;18.40;51.60;;;;;;4545435;31;20131;-64
2022/03/06 04:28:12;;;;;;;1.60;0.75;;;18.40;51.60;;;;;;4546257;31;20239;-64
2022/03/06 04:30:37;;;;;;;1.73;0.70;;;18.40;51.60;;;;;;4545787;31;20216;-64
2022/03/06 04:33:03;;;;;;;1.25;0.75;;;18.30;51.60;;;;;;4545780;31;20280;-64
2022/03/06 04:35:30;;;;;;;1.65;0.60;;;18.40;51.60;;;;;;4546521;31;20188;-64
2022/03/06 04:37:55;;;;;;;1.38;0.80;;;18.30;51.60;;;;;;4545212;31;20599;-64
2022/03/06 04:40:22;;;;;;;1.00;0.57;;;18.30;51.60;;;;;;4546288;31;20135;-64
2022/03/06 04:42:47;;;;;;;1.77;0.82;;;18.30;51.60;;;;;;4545024;31;20139;-64
2022/03/06 04:45:14;;;;;;;2.03;0.82;;;18.30;51.60;;;;;;4545711;31;20133;-64
2022/03/06 04:47:40;;;;;;;2.15;0.88;;;18.30;51.60;;;;;;4545508;31;20124;-64
2022/03/06 04:50:06;;;;;;;1.80;0.90;;;18.30;51.60;;;;;;4545734;31;20139;-64
2022/03/06 04:52:32;;;;;;;1.40;0.77;;;18.20;51.50;;;;;;4545808;31;20127;-64
2022/03/06 04:54:58;;;;;;;1.15;0.85;;;18.30;51.60;;;;;;4545107;31;20108;-64
2022/03/06 04:57:23;;;;;;;2.03;0.70;;;18.20;51.60;;;;;;4545978;31;20127;-63
2022/03/06 04:59:49;;;;;;;1.10;0.60;;;18.30;51.70;;;;;;4545068;31;20528;-64
2022/03/06 05:02:15;;;;;;;0.98;0.50;;;18.20;51.60;;;;;;4545806;31;20278;-64
2022/03/06 05:04:41;;;;;;;2.42;0.80;;;18.20;51.60;;;;;;4545241;31;20135;-64
2022/03/06 05:07:07;;;;;;;1.92;0.55;;;18.20;51.60;;;;;;4545586;31;20851;-64
2022/03/06 05:09:34;;;;;;;1.33;0.70;;;18.20;51.60;;;;;;4545729;31;20152;-65
2022/03/06 05:12:00;;;;;;;1.30;0.70;;;18.20;51.60;;;;;;4544921;31;20131;-64
2022/03/06 05:14:26;;;;;;;1.05;0.70;;;18.20;51.60;;;;;;4545789;31;20168;-64
2022/03/06 05:16:52;;;;;;;1.67;0.60;;;18.20;51.70;;;;;;4544814;31;20131;-64
2022/03/06 05:19:18;;;;;;;0.95;0.40;;;18.10;51.60;;;;;;4531269;31;20166;-64
2022/03/06 05:21:44;;;;;;;1.42;0.65;;;18.10;51.60;;;;;;4545103;31;20124;-64
2022/03/06 05:24:10;;;;;;;1.55;0.82;;;18.20;51.70;;;;;;4545338;31;20142;-64
2022/03/06 05:26:36;;;;;;;1.02;0.50;;;18.10;51.70;;;;;;4531187;31;20185;-63
2022/03/06 05:29:03;;;;;;;1.10;0.70;;;18.10;51.60;;;;;;4544830;31;20137;-64
2022/03/06 05:31:29;;;;;;;2.05;0.80;;;18.10;51.60;;;;;;4545787;31;20186;-64
2022/03/06 05:33:56;;;;;;;1.20;0.47;;;18.10;51.60;;;;;;4544808;31;20273;-64
2022/03/06 05:36:22;;;;;;;2.63;0.70;;;18.10;51.70;;;;;;4545556;31;20562;-64
2022/03/06 05:38:48;;;;;;;0.90;0.68;;;18.00;51.60;;;;;;4547403;31;20127;-64
2022/03/06 05:41:14;;;;;;;0.77;0.43;;;18.10;51.70;;;;;;4548475;31;20131;-64
2022/03/06 05:43:40;;;;;;;0.60;0.47;;;18.00;51.60;;;;;;4548388;31;20180;-64
2022/03/06 05:46:07;;;;;;;1.30;0.70;;;18.10;51.70;;;;;;4547960;31;20588;-64
2022/03/06 05:48:33;;;;;;;1.65;0.80;;;18.00;51.60;;;;;;4549004;31;20137;-64
2022/03/06 05:50:59;;;;;;;1.15;0.63;;;18.00;51.60;;;;;;4547580;31;20196;-64
2022/03/06 05:53:24;;;;;;;1.60;0.68;;;18.00;51.60;;;;;;4548682;31;20108;-63
2022/03/06 05:55:50;;;;;;;1.60;0.60;;;18.00;51.70;;;;;;4547963;31;20141;-64
2022/03/06 05:58:16;;;;;;;1.52;0.65;;;18.00;51.60;;;;;;4548350;31;20185;-64
2022/03/06 06:00:42;;;;;;;1.67;0.60;;;18.00;51.70;;;;;;4533598;31;20142;-64
2022/03/06 06:03:08;;;;;;;0.70;0.50;;;17.90;51.60;;;;;;4547840;31;20128;-64
2022/03/06 06:05:34;;;;;;;0.95;0.40;;;17.90;51.70;;;;;;4548611;31;20150;-64
2022/03/06 06:08:00;;;;;;;2.00;0.60;;;17.90;51.70;;;;;;4547382;31;20120;-64
2022/03/06 06:10:26;;;;;;;0.82;0.52;;;17.90;51.60;;;;;;4548593;31;20108;-64
2022/03/06 06:12:52;;;;;;;0.90;0.60;;;17.90;51.60;;;;;;4547408;31;20135;-64
2022/03/06 06:15:18;;;;;;;1.17;0.50;;;17.90;51.60;;;;;;4548126;31;20131;-64
2022/03/06 06:17:44;;;;;;;0.85;0.50;;;17.90;51.70;;;;;;4547948;31;20453;-64
2022/03/06 06:20:10;;;;;;;1.20;0.52;;;17.90;51.70;;;;;;4547485;31;20131;-64
2022/03/06 06:22:36;;;;;;;1.05;0.60;;;17.80;51.60;;;;;;4548412;31;20137;-64
2022/03/06 06:25:03;;;;;;;1.05;0.43;;;17.90;51.70;;;;;;4547043;31;20511;-64
2022/03/06 06:27:29;;;;;;;0.88;0.50;;;17.80;51.60;;;;;;4532987;31;20124;-64
2022/03/06 06:29:55;;;;;;;0.73;0.43;;;17.80;51.60;;;;;;4546266;31;20132;-65
2022/03/06 06:32:22;;;;;;;1.13;0.60;;;17.80;51.60;;;;;;4532668;31;20465;-64
2022/03/06 06:34:48;;;;;;;0.70;0.45;;;17.80;51.70;;;;;;4546540;31;20119;-64
2022/03/06 06:37:14;;;;;;;1.20;0.45;;;17.80;51.70;;;;;;4546120;31;20497;-64
2022/03/06 06:39:41;;;;;;;2.05;0.60;;;17.80;51.70;;;;;;4546382;31;20169;-64
2022/03/06 06:42:08;;;;;;;0.98;0.47;;;17.80;51.70;;;;;;4545426;31;20201;-64
2022/03/06 06:44:34;;;;;;;0.75;0.50;;;17.80;51.60;;;;;;4530757;31;20146;-64
2022/03/06 06:47:02;;;;;;;1.23;0.60;;;17.80;51.70;;;;;;4544192;31;20153;-64
2022/03/06 06:49:28;;;;;;;1.75;0.65;;;17.80;51.60;;;;;;4545682;31;20120;-64
2022/03/06 06:51:53;;;;;;;0.75;0.55;;;17.80;51.60;;;;;;4546296;31;20111;-63
2022/03/06 06:54:19;;;;;;;0.63;0.50;;;17.70;51.60;;;;;;4530612;31;20116;-64
2022/03/06 06:56:45;;;;;;;0.82;0.35;;;17.80;51.60;;;;;;4546739;31;20181;-64
2022/03/06 06:59:13;;;;;;;0.93;0.60;;;17.70;51.60;;;;;;4545672;31;20177;-64
2022/03/06 07:01:40;;;;;;;1.38;0.60;;;17.70;51.60;;;;;;4546949;31;20127;-63
2022/03/06 07:04:06;;;;;;;0.80;0.20;;;17.70;51.60;;;;;;4546679;31;20265;-64
2022/03/06 07:06:32;;;;;;;1.08;0.60;;;17.70;51.60;;;;;;4547480;31;20123;-64
2022/03/06 07:08:58;;;;;;;1.45;0.50;;;17.70;51.60;;;;;;4547153;31;20571;-64
2022/03/06 07:11:24;;;;;;;1.00;0.50;;;17.70;51.60;;;;;;4546977;31;20202;-64
2022/03/06 07:13:50;;;;;;;1.08;0.40;;;17.70;51.60;;;;;;4547166;31;20127;-64
2022/03/06 07:16:15;;;;;;;0.82;0.40;;;17.70;51.60;;;;;;4546450;31;20147;-64
2022/03/06 07:18:41;;;;;;;0.60;0.40;;;17.70;51.60;;;;;;4547625;31;20138;-64
2022/03/06 07:21:07;;;;;;;0.95;0.40;;;17.70;51.60;;;;;;4531955;31;20124;-64
2022/03/06 07:23:33;;;;;;;0.95;0.60;;;17.70;51.60;;;;;;4547071;31;20145;-64
2022/03/06 07:25:59;;;;;;;0.60;0.32;;;17.70;51.60;;;;;;4546632;31;20438;-64
2022/03/06 07:28:25;;;;;;;0.60;0.40;;;17.60;51.50;;;;;;4546799;31;20574;-64
2022/03/06 07:30:51;;;;;;;0.85;0.50;;;17.70;51.60;;;;;;4547047;31;20124;-64
2022/03/06 07:33:18;;;;;;;1.02;0.70;;;17.60;51.50;;;;;;4545565;31;20274;-64
2022/03/06 07:35:43;;;;;;;0.88;0.50;;;17.70;51.60;;;;;;4546677;31;20184;-64
2022/03/06 07:38:09;;;;;;;0.88;0.40;;;17.70;51.60;;;;;;4545150;31;20127;-64
2022/03/06 07:40:35;;;;;;;1.35;0.40;;;17.60;51.50;;;;;;4546284;31;20142;-63
2022/03/06 07:43:01;;;;;;;1.10;0.50;;;17.70;51.60;;;;;;4530880;31;20184;-64
2022/03/06 07:45:27;;;;;;;1.55;0.60;;;17.60;51.50;;;;;;4531102;31;20127;-64
2022/03/06 07:47:55;;;;;;;0.65;0.38;;;17.60;51.50;;;;;;4546070;31;20135;-64
2022/03/06 07:50:20;;;;;;;1.35;0.50;;;17.60;51.50;;;;;;4545432;31;20127;-64
2022/03/06 07:52:46;;;;;;;0.50;0.40;;;17.60;51.50;;;;;;4546351;31;20138;-64
2022/03/06 07:55:13;;;;;;;1.00;0.40;;;17.60;51.60;;;;;;4545855;31;20120;-64
2022/03/06 07:57:39;;;;;;;0.73;0.50;;;17.60;51.50;;;;;;4546745;31;20579;-64
2022/03/06 08:00:07;;;;;;;1.13;0.55;;;17.60;51.60;;;;;;4544886;31;20127;-64
2022/03/06 08:02:33;;;;;;;1.23;0.50;;;17.60;51.60;;;;;;4545748;31;20480;-62
2022/03/06 08:04:59;;;;;;;0.88;0.40;;;17.60;51.50;;;;;;4531166;31;20580;-62
2022/03/06 08:07:25;;;;;;;0.93;0.60;;;17.60;51.00;;;;;;4530598;31;20124;-62
2022/03/06 08:09:50;;;;;;;3.83;0.90;;;17.60;49.90;;;;;;4545385;31;20572;-62
2022/03/06 08:12:16;;;;;;;2.83;0.77;;;17.60;49.20;;;;;;4544838;31;20120;-62
2022/03/06 08:14:42;;;;;;;2.35;1.00;;;17.50;48.80;;;;;;4545564;31;20131;-62
2022/03/06 08:17:08;;;;;;;2.67;0.90;;;17.50;46.40;;;;;;4530489;31;20564;-62
2022/03/06 08:19:34;;;;;;;2.60;0.95;;;17.50;46.00;;;;;;4545401;31;20130;-62
2022/03/06 08:21:59;;;;;;;1.15;0.70;;;17.50;45.90;;;;;;4546188;31;20218;-63
2022/03/06 08:24:25;;;;;;;2.22;0.73;;;17.50;46.20;;;;;;4545767;31;20166;-62
2022/03/06 08:26:51;;;;;;;2.00;0.60;;;17.50;46.40;;;;;;4546411;31;20559;-62
2022/03/06 08:29:17;;;;;;;6.43;0.90;;;17.50;46.50;;;;;;4545210;31;20265;-63
2022/03/06 08:31:43;;;;;;;5.63;0.85;;;17.50;46.40;;;;;;4546391;31;20246;-62
2022/03/06 08:34:09;;;;;;;1.60;0.80;;;17.50;46.60;;;;;;4545426;31;20580;-62
2022/03/06 08:36:35;;;;;;;2.10;0.70;;;17.50;46.60;;;;;;4531654;31;20151;-63
2022/03/06 08:39:00;;;;;;;2.28;0.73;;;17.50;46.60;;;;;;4545721;31;20123;-63
2022/03/06 08:41:26;;;;;;;2.08;0.65;;;17.60;46.80;;;;;;4545684;31;20178;-62
2022/03/06 08:43:52;;;;;;;2.22;0.50;;;17.70;46.90;;;;;;4545874;31;20128;-62
2022/03/06 08:46:18;;;;;;;1.33;0.63;;;17.70;47.00;;;;;;4544986;31;20151;-62
2022/03/06 08:48:45;;;;;;;2.90;0.70;;;17.80;47.10;;;;;;4531844;31;20248;-63
2022/03/06 08:51:13;;;;;;;1.90;0.50;;;17.90;47.00;;;;;;4545040;31;20824;-63
2022/03/06 08:53:39;;;;;;;1.40;0.38;;;18.00;46.90;;;;;;4545934;31;20122;-63
2022/03/06 08:56:05;;;;;;;1.42;0.60;;;18.10;46.70;;;;;;4545607;31;20115;-63
2022/03/06 08:58:30;;;;;;;1.88;0.60;;;18.20;46.50;;;;;;4531062;31;20175;-62
2022/03/06 09:00:57;;;;;;;3.40;0.60;;;18.40;46.50;;;;;;4545857;31;20176;-62
2022/03/06 09:03:23;;;;;;;2.63;0.45;;;18.50;46.30;;;;;;4545032;31;20147;-63
2022/03/06 09:05:49;;;;;;;1.13;0.47;;;18.60;46.20;;;;;;4531639;31;20136;-63
2022/03/06 09:08:14;;;;;;;4.00;0.60;;;18.70;46.10;;;;;;4544918;31;20185;-62
2022/03/06 09:10:41;;;;;;;1.67;0.45;;;18.80;45.90;;;;;;4545425;31;20135;-62
2022/03/06 09:13:08;;;;;;;1.17;0.30;;;18.90;45.90;;;;;;4544353;31;20137;-63
2022/03/06 09:15:35;;;;;;;1.30;0.40;;;19.10;45.80;;;;;;4544833;31;20546;-63
2022/03/06 09:18:01;;;;;;;4.55;0.50;;;19.20;45.60;;;;;;4545232;31;20224;-63
2022/03/06 09:20:27;;;;;;;1.52;0.45;;;19.30;45.40;;;;;;4544118;31;20143;-62
2022/03/06 09:22:54;;;;;;;3.35;0.40;;;19.40;46.20;;;;;;4530909;31;20112;-63
2022/03/06 09:25:20;;;;;;;9.38;1.05;;;19.50;45.10;;;;;;4544349;31;20143;-63
2022/03/06 09:27:46;;;;;;;2.70;0.77;;;19.70;44.80;;;;;;4545614;31;20147;-63
2022/03/06 09:30:13;;;;;;;3.15;0.98;;;19.70;43.40;;;;;;4545061;31;20123;-62
2022/03/06 09:32:39;;;;;;;2.70;1.00;;;19.80;41.70;;;;;;4545294;31;20540;-62
2022/03/06 09:35:06;;;;;;;2.33;0.82;;;19.80;40.30;;;;;;4545540;31;20128;-63
2022/03/06 09:37:33;;;;;;;2.55;1.00;;;19.80;39.10;;;;;;4544887;31;20127;-63
2022/03/06 09:40:00;;;;;;;3.25;1.20;;;19.70;38.50;;;;;;4545568;31;20147;-62
2022/03/06 09:42:26;;;;;;;2.17;0.90;;;19.60;37.90;;;;;;4530149;31;20131;-62
2022/03/06 09:44:52;;;;;;;4.97;1.13;;;19.50;37.90;;;;;;4545285;31;20128;-63
2022/03/06 09:47:18;;;;;;;6.38;1.30;;;19.40;38.60;;;;;;4544997;31;20123;-63
2022/03/06 09:49:46;;;;;;;2.42;0.90;;;19.40;37.50;;;;;;4545321;31;20142;-63
2022/03/06 09:52:12;;;;;;;2.58;0.90;;;19.30;37.40;;;;;;4545183;31;20304;-62
2022/03/06 09:54:39;;;;;;;3.92;0.90;;;19.30;37.10;;;;;;4544817;31;20134;-63
2022/03/06 09:57:06;;;;;;;2.65;0.73;;;19.30;37.10;;;;;;4545619;31;20180;-62
2022/03/06 09:59:32;;;;;;;2.38;0.80;;;19.40;37.40;;;;;;4543926;31;20150;-63
2022/03/06 10:02:02;;;;;;;4.28;0.75;;;19.40;37.50;;;;;;4545427;31;20214;-63
2022/03/06 10:04:31;;;;;;;2.35;0.90;;;19.50;37.80;;;;;;4544844;31;20144;-62
2022/03/06 10:07:11;;;;;;;2.83;0.88;;;19.70;37.90;;;;;;4545204;31;20249;-62
2022/03/06 10:09:44;;;;;;;2.55;0.73;;;19.80;38.10;;;;;;4544917;31;20171;-63
2022/03/06 10:12:29;;;;;;;1.92;0.73;;;19.90;38.30;;;;;;4543566;31;20131;-62
2022/03/06 10:14:59;;;;;;;4.78;0.60;;;20.00;38.40;;;;;;4544138;31;20123;-61
2022/03/06 10:17:27;;;;;;;3.13;0.43;;;20.10;38.50;;;;;;4544524;31;20151;-62
2022/03/06 10:19:58;;;;;;;3.67;0.70;;;20.20;38.60;;;;;;4544878;31;20131;-62
2022/03/06 10:22:36;;;;;;;4.18;0.63;;;20.20;38.70;;;;;;4544836;31;20246;-63
2022/03/06 10:25:06;;;;;;;4.30;0.70;;;20.30;38.80;;;;;;4546397;31;20120;-62
2022/03/06 10:27:57;;;;;;;5.35;0.68;;;20.40;39.00;;;;;;4548019;31;20205;-63
2022/03/06 10:30:29;;;;;;;2.97;0.60;;;20.40;39.20;;;;;;4547958;31;20128;-62
2022/03/06 10:32:57;;;;;;;2.72;0.47;;;20.40;39.30;;;;;;4547576;31;20265;-61
2022/03/06 10:35:31;;;;;;;2.22;0.57;;;20.40;39.50;;;;;;4548232;31;20146;-62
2022/03/06 10:37:58;;;;;;;1.77;0.52;;;20.40;39.70;;;;;;4547102;31;20192;-63
2022/03/06 10:40:35;;;;;;;2.13;0.50;;;20.40;39.90;;;;;;4547857;31;20124;-62
2022/03/06 10:43:01;;;;;;;1.33;0.40;;;20.50;40.10;;;;;;4547113;31;20158;-62
2022/03/06 10:45:27;;;;;;;3.63;0.60;;;20.50;40.20;;;;;;4546352;31;20197;-64
2022/03/06 10:47:55;;;;;;;1.75;0.40;;;20.50;40.30;;;;;;4547609;31;20104;-62
2022/03/06 10:50:25;;;;;;;3.75;0.57;;;20.50;40.50;;;;;;4546918;31;20131;-61
2022/03/06 10:52:53;;;;;;;1.23;0.32;;;20.50;40.60;;;;;;4547967;31;20128;-62
2022/03/06 10:55:35;;;;;;;1.70;0.57;;;20.50;40.70;;;;;;4546685;31;20143;-62
2022/03/06 10:58:03;;;;;;;0.82;0.40;;;20.50;40.70;;;;;;4547615;31;20139;-62
2022/03/06 11:00:29;;;;;;;2.78;0.52;;;20.50;40.70;;;;;;4546824;31;20653;-63
2022/03/06 11:02:57;;;;;;;1.27;0.40;;;20.40;40.60;;;;;;4546609;31;20192;-63
2022/03/06 11:05:26;;;;;;;1.42;0.47;;;20.40;40.70;;;;;;4547832;31;20142;-62
2022/03/06 11:07:52;;;;;;;1.95;0.60;;;20.40;40.90;;;;;;4546385;31;20312;-63
2022/03/06 11:10:19;;;;;;;1.60;0.63;;;20.40;41.00;;;;;;4547470;31;20151;-62
2022/03/06 11:12:45;;;;;;;2.67;0.40;;;20.50;41.20;;;;;;4546633;31;20212;-63
2022/03/06 11:15:11;;;;;;;2.25;0.45;;;20.50;41.30;;;;;;4547083;31;20548;-62
2022/03/06 11:17:37;;;;;;;1.05;0.35;;;20.50;41.40;;;;;;4532638;31;20139;-62
2022/03/06 11:20:03;;;;;;;3.17;0.35;;;20.50;41.40;;;;;;4546382;31;20163;-62
2022/03/06 11:22:39;;;;;;;1.77;0.50;;;20.50;41.60;;;;;;4546536;31;20136;-62
2022/03/06 11:25:12;;;;;;;0.57;0.40;;;20.50;41.70;;;;;;4545056;31;20163;-63
2022/03/06 11:28:09;;;;;;;2.15;0.40;;;20.50;41.80;;;;;;4546515;31;20588;-62
2022/03/06 11:30:35;;;;;;;0.50;0.30;;;20.50;41.90;;;;;;4546362;31;20135;-63
2022/03/06 11:33:08;;;;;;;1.23;0.40;;;20.50;42.00;;;;;;4545740;31;20174;-64
2022/03/06 11:35:43;;;;;;;1.45;0.50;;;20.50;42.20;;;;;;4546120;31;20262;-64
2022/03/06 11:38:20;;;;;;;1.77;0.38;;;20.50;42.30;;;;;;4545564;31;20127;-64
2022/03/06 11:40:51;;;;;;;0.90;0.43;;;20.50;42.50;;;;;;4546346;31;20146;-65
2022/03/06 11:43:43;;;;;;;0.88;0.30;;;20.40;42.60;;;;;;4545381;31;20155;-64
2022/03/06 11:46:14;;;;;;;1.05;0.30;;;20.40;42.70;;;;;;4545724;31;20137;-64
2022/03/06 11:49:00;;;;;;;4.28;0.60;;;20.40;42.70;;;;;;4547131;31;20184;-64
2022/03/06 11:51:29;;;;;;;2.78;0.40;;;20.40;42.80;;;;;;4545969;31;20248;-64
2022/03/06 11:54:06;;;;;;;2.13;0.40;;;20.40;42.90;;;;;;4546309;31;20123;-64
2022/03/06 11:56:33;;;;;;;0.80;0.40;;;20.40;42.90;;;;;;4518292;31;20520;-63
2022/03/06 11:58:58;;;;;;;3.97;0.73;;;20.40;43.10;;;;;;4543386;31;20120;-62
2022/03/06 12:01:32;;;;;;;1.35;0.38;;;20.40;43.20;;;;;;4546885;31;20174;-62
2022/03/06 12:04:12;;;;;;;0.60;0.40;;;20.40;43.40;;;;;;4531436;31;20139;-63
2022/03/06 12:06:45;;;;;;;1.38;0.30;;;20.40;43.50;;;;;;4546545;31;20133;-63
2022/03/06 12:09:15;;;;;;;2.75;0.55;;;20.40;43.50;;;;;;4546274;31;20145;-63
2022/03/06 12:11:42;;;;;;;0.93;0.38;;;20.40;43.50;;;;;;4545819;31;20196;-64
2022/03/06 12:14:17;;;;;;;3.50;0.40;;;20.40;43.50;;;;;;4546060;31;20123;-63
2022/03/06 12:17:07;;;;;;;0.65;0.30;;;20.50;43.50;;;;;;4545060;31;20124;-63
2022/03/06 12:19:42;;;;;;;2.53;0.30;;;20.50;43.50;;;;;;4545411;31;20131;-64
2022/03/06 12:22:16;;;;;;;1.52;0.30;;;20.50;43.50;;;;;;4545656;31;20141;-63
2022/03/06 12:25:09;;;;;;;2.13;0.40;;;20.60;43.50;;;;;;4544971;31;20274;-63
2022/03/06 12:28:02;;;;;;;3.28;0.40;;;20.60;43.60;;;;;;4545457;31;20139;-64
2022/03/06 12:30:34;;;;;;;1.88;0.45;;;20.60;43.70;;;;;;4545287;31;20151;-63
2022/03/06 12:33:25;;;;;;;0.45;0.28;;;20.60;43.80;;;;;;4544944;31;20137;-62
2022/03/06 12:36:06;;;;;;;1.02;0.40;;;20.60;43.90;;;;;;4545323;31;20306;-63
2022/03/06 12:38:33;;;;;;;2.60;0.43;;;20.60;44.00;;;;;;4544506;31;20124;-63
2022/03/06 12:40:59;;;;;;;2.03;0.50;;;20.60;44.10;;;;;;4544777;31;20258;-63
2022/03/06 12:43:26;;;;;;;3.42;0.40;;;20.60;44.20;;;;;;4545134;31;20123;-62
2022/03/06 12:45:52;;;;;;;2.72;0.40;;;20.60;44.20;;;;;;4544619;31;20127;-62
2022/03/06 12:48:18;;;;;;;1.08;0.50;;;20.60;44.30;;;;;;4543419;31;20138;-62
2022/03/06 12:50:43;;;;;;;1.48;0.30;;;20.60;44.40;;;;;;4544798;31;20131;-61